sensor_id;sensor_type;location;lat;lon;timestamp;temperature;humidity
13982;DHT22;7065;50.880;5.502;2023-10-09T00:01:27;16.30;99.90
13982;DHT22;7065;50.880;5.502;2023-10-09T00:03:53;16.20;99.90
13982;DHT22;7065;50.880;5.502;2023-10-09T00:06:21;16.20;99.90
13982;DHT22;7065;50.880;5.502;2023-10-09T00:08:55;16.20;99.90
13982;DHT22;7065;50.880;5.502;2023-10-09T00:11:23;16.20;99.90
13982;DHT22;7065;50.880;5.502;2023-10-09T00:13:55;16.20;99.90
13982;DHT22;7065;50.880;5.502;2023-10-09T00:16:25;16.20;99.90
13982;DHT22;7065;50.880;5.502;2023-10-09T00:19:05;16.20;99.90
13982;DHT22;7065;50.880;5.502;2023-10-09T00:21:48;16.10;99.90
13982;DHT22;7065;50.880;5.502;2023-10-09T00:24:15;16.10;99.90
13982;DHT22;7065;50.880;5.502;2023-10-09T00:26:51;16.10;99.90
13982;DHT22;7065;50.880;5.502;2023-10-09T00:29:17;16.10;99.90
13982;DHT22;7065;50.880;5.502;2023-10-09T00:31:53;16.00;99.90
13982;DHT22;7065;50.880;5.502;2023-10-09T00:34:29;16.00;99.90
13982;DHT22;7065;50.880;5.502;2023-10-09T00:36:55;16.00;99.90
13982;DHT22;7065;50.880;5.502;2023-10-09T00:39:23;16.00;99.90
13982;DHT22;7065;50.880;5.502;2023-10-09T00:42:03;16.00;99.90
13982;DHT22;7065;50.880;5.502;2023-10-09T00:44:32;16.00;99.90
13982;DHT22;7065;50.880;5.502;2023-10-09T00:47:11;16.10;99.90
13982;DHT22;7065;50.880;5.502;2023-10-09T00:49:57;16.10;99.90
13982;DHT22;7065;50.880;5.502;2023-10-09T00:52:33;16.10;99.90
13982;DHT22;7065;50.880;5.502;2023-10-09T00:55:10;16.10;99.90
13982;DHT22;7065;50.880;5.502;2023-10-09T00:57:43;16.10;99.90
13982;DHT22;7065;50.880;5.502;2023-10-09T01:00:22;16.10;99.90
13982;DHT22;7065;50.880;5.502;2023-10-09T01:03:03;16.20;99.90
13982;DHT22;7065;50.880;5.502;2023-10-09T01:05:38;16.10;99.90
13982;DHT22;7065;50.880;5.502;2023-10-09T01:08:04;16.10;99.90
13982;DHT22;7065;50.880;5.502;2023-10-09T01:10:48;16.10;99.90
13982;DHT22;7065;50.880;5.502;2023-10-09T01:13:16;16.10;99.90
13982;DHT22;7065;50.880;5.502;2023-10-09T01:15:44;16.20;99.90
13982;DHT22;7065;50.880;5.502;2023-10-09T01:18:10;16.20;99.90
13982;DHT22;7065;50.880;5.502;2023-10-09T01:20:36;16.20;99.90
13982;DHT22;7065;50.880;5.502;2023-10-09T01:23:10;16.20;99.90
13982;DHT22;7065;50.880;5.502;2023-10-09T01:25:36;16.20;99.90
13982;DHT22;7065;50.880;5.502;2023-10-09T01:28:09;16.20;99.90
13982;DHT22;7065;50.880;5.502;2023-10-09T01:30:35;16.20;99.90
13982;DHT22;7065;50.880;5.502;2023-10-09T01:33:07;16.30;99.90
13982;DHT22;7065;50.880;5.502;2023-10-09T01:35:41;16.30;99.90
13982;DHT22;7065;50.880;5.502;2023-10-09T01:38:16;16.30;99.90
13982;DHT22;7065;50.880;5.502;2023-10-09T01:40:42;16.30;99.90
13982;DHT22;7065;50.880;5.502;2023-10-09T01:43:10;16.20;99.90
13982;DHT22;7065;50.880;5.502;2023-10-09T01:45:36;16.20;99.90
13982;DHT22;7065;50.880;5.502;2023-10-09T01:48:07;16.20;99.90
13982;DHT22;7065;50.880;5.502;2023-10-09T01:50:34;16.20;99.90
13982;DHT22;7065;50.880;5.502;2023-10-09T01:53:01;16.30;99.90
13982;DHT22;7065;50.880;5.502;2023-10-09T01:55:31;16.30;99.90
13982;DHT22;7065;50.880;5.502;2023-10-09T01:58:08;16.30;99.90
13982;DHT22;7065;50.880;5.502;2023-10-09T02:00:42;16.30;99.90
13982;DHT22;7065;50.880;5.502;2023-10-09T02:03:09;16.30;99.90
13982;DHT22;7065;50.880;5.502;2023-10-09T02:05:38;16.30;99.90
13982;DHT22;7065;50.880;5.502;2023-10-09T02:08:05;16.30;99.90
13982;DHT22;7065;50.880;5.502;2023-10-09T02:10:31;16.30;99.90
13982;DHT22;7065;50.880;5.502;2023-10-09T02:13:05;16.30;99.90
13982;DHT22;7065;50.880;5.502;2023-10-09T02:15:38;16.30;99.90
13982;DHT22;7065;50.880;5.502;2023-10-09T02:18:15;16.40;99.90
13982;DHT22;7065;50.880;5.502;2023-10-09T02:20:49;16.40;99.90
13982;DHT22;7065;50.880;5.502;2023-10-09T02:23:29;16.40;99.90
13982;DHT22;7065;50.880;5.502;2023-10-09T02:26:14;16.40;99.90
13982;DHT22;7065;50.880;5.502;2023-10-09T02:28:48;16.30;99.90
13982;DHT22;7065;50.880;5.502;2023-10-09T02:31:18;16.30;99.90
13982;DHT22;7065;50.880;5.502;2023-10-09T02:33:47;16.30;99.90
13982;DHT22;7065;50.880;5.502;2023-10-09T02:36:16;16.30;99.90
13982;DHT22;7065;50.880;5.502;2023-10-09T02:38:42;16.20;99.90
13982;DHT22;7065;50.880;5.502;2023-10-09T02:41:09;16.20;99.90
13982;DHT22;7065;50.880;5.502;2023-10-09T02:43:38;16.20;99.90
13982;DHT22;7065;50.880;5.502;2023-10-09T02:46:14;16.20;99.90
13982;DHT22;7065;50.880;5.502;2023-10-09T02:49:02;16.20;99.90
13982;DHT22;7065;50.880;5.502;2023-10-09T02:51:35;16.20;99.90
13982;DHT22;7065;50.880;5.502;2023-10-09T02:54:07;16.20;99.90
13982;DHT22;7065;50.880;5.502;2023-10-09T02:56:50;16.20;99.90
13982;DHT22;7065;50.880;5.502;2023-10-09T02:59:31;16.20;99.90
13982;DHT22;7065;50.880;5.502;2023-10-09T03:01:57;16.20;99.90
13982;DHT22;7065;50.880;5.502;2023-10-09T03:04:28;16.20;99.90
13982;DHT22;7065;50.880;5.502;2023-10-09T03:06:55;16.20;99.90
13982;DHT22;7065;50.880;5.502;2023-10-09T03:09:22;16.20;99.90
13982;DHT22;7065;50.880;5.502;2023-10-09T03:11:54;16.20;99.90
13982;DHT22;7065;50.880;5.502;2023-10-09T03:14:20;16.20;99.90
13982;DHT22;7065;50.880;5.502;2023-10-09T03:16:47;16.10;99.90
13982;DHT22;7065;50.880;5.502;2023-10-09T03:19:14;16.20;99.90
13982;DHT22;7065;50.880;5.502;2023-10-09T03:21:40;16.10;99.90
13982;DHT22;7065;50.880;5.502;2023-10-09T03:24:07;16.10;99.90
13982;DHT22;7065;50.880;5.502;2023-10-09T03:26:33;16.10;99.90
13982;DHT22;7065;50.880;5.502;2023-10-09T03:28:59;16.10;99.90
13982;DHT22;7065;50.880;5.502;2023-10-09T03:31:27;16.10;99.90
13982;DHT22;7065;50.880;5.502;2023-10-09T03:33:57;16.10;99.90
13982;DHT22;7065;50.880;5.502;2023-10-09T03:36:22;16.00;99.90
13982;DHT22;7065;50.880;5.502;2023-10-09T03:38:52;16.00;99.90
13982;DHT22;7065;50.880;5.502;2023-10-09T03:41:21;16.00;99.90
13982;DHT22;7065;50.880;5.502;2023-10-09T03:43:47;16.00;99.90
13982;DHT22;7065;50.880;5.502;2023-10-09T03:46:15;16.00;99.90
13982;DHT22;7065;50.880;5.502;2023-10-09T03:48:48;15.90;99.90
13982;DHT22;7065;50.880;5.502;2023-10-09T03:51:14;15.90;99.90
13982;DHT22;7065;50.880;5.502;2023-10-09T03:53:47;15.90;99.90
13982;DHT22;7065;50.880;5.502;2023-10-09T03:56:13;15.90;99.90
13982;DHT22;7065;50.880;5.502;2023-10-09T03:58:42;15.90;99.90
13982;DHT22;7065;50.880;5.502;2023-10-09T04:01:13;15.80;99.90
13982;DHT22;7065;50.880;5.502;2023-10-09T04:03:53;15.80;99.90
13982;DHT22;7065;50.880;5.502;2023-10-09T04:06:24;15.80;99.90
13982;DHT22;7065;50.880;5.502;2023-10-09T04:08:54;15.90;99.90
13982;DHT22;7065;50.880;5.502;2023-10-09T04:11:20;15.80;99.90
13982;DHT22;7065;50.880;5.502;2023-10-09T04:13:50;15.80;99.90
13982;DHT22;7065;50.880;5.502;2023-10-09T04:16:18;15.90;99.90
13982;DHT22;7065;50.880;5.502;2023-10-09T04:18:56;15.90;99.90
13982;DHT22;7065;50.880;5.502;2023-10-09T04:21:23;15.80;99.90
13982;DHT22;7065;50.880;5.502;2023-10-09T04:24:05;15.80;99.90
13982;DHT22;7065;50.880;5.502;2023-10-09T04:26:37;15.80;99.90
13982;DHT22;7065;50.880;5.502;2023-10-09T04:29:10;15.80;99.90
13982;DHT22;7065;50.880;5.502;2023-10-09T04:31:46;15.80;99.90
13982;DHT22;7065;50.880;5.502;2023-10-09T04:34:20;15.80;99.90
13982;DHT22;7065;50.880;5.502;2023-10-09T04:36:55;15.80;99.90
13982;DHT22;7065;50.880;5.502;2023-10-09T04:39:27;15.80;99.90
13982;DHT22;7065;50.880;5.502;2023-10-09T04:41:59;15.80;99.90
13982;DHT22;7065;50.880;5.502;2023-10-09T04:44:44;15.80;99.90
13982;DHT22;7065;50.880;5.502;2023-10-09T04:47:32;15.80;99.90
13982;DHT22;7065;50.880;5.502;2023-10-09T04:50:11;15.80;99.90
13982;DHT22;7065;50.880;5.502;2023-10-09T04:52:39;15.80;99.90
13982;DHT22;7065;50.880;5.502;2023-10-09T04:55:06;15.80;99.90
13982;DHT22;7065;50.880;5.502;2023-10-09T04:57:38;15.80;99.90
13982;DHT22;7065;50.880;5.502;2023-10-09T05:00:25;15.80;99.90
13982;DHT22;7065;50.880;5.502;2023-10-09T05:02:52;15.70;99.90
13982;DHT22;7065;50.880;5.502;2023-10-09T05:05:22;15.70;99.90
13982;DHT22;7065;50.880;5.502;2023-10-09T05:08:03;15.70;99.90
13982;DHT22;7065;50.880;5.502;2023-10-09T05:10:47;15.70;99.90
13982;DHT22;7065;50.880;5.502;2023-10-09T05:13:35;15.80;99.90
13982;DHT22;7065;50.880;5.502;2023-10-09T05:19:05;15.80;99.90
13982;DHT22;7065;50.880;5.502;2023-10-09T05:21:37;15.80;99.90
13982;DHT22;7065;50.880;5.502;2023-10-09T05:24:12;15.80;99.90
13982;DHT22;7065;50.880;5.502;2023-10-09T05:26:40;15.80;99.90
13982;DHT22;7065;50.880;5.502;2023-10-09T05:29:25;15.80;99.90
13982;DHT22;7065;50.880;5.502;2023-10-09T05:32:06;15.80;99.90
13982;DHT22;7065;50.880;5.502;2023-10-09T05:34:38;15.80;99.90
13982;DHT22;7065;50.880;5.502;2023-10-09T05:37:22;15.80;99.90
13982;DHT22;7065;50.880;5.502;2023-10-09T05:39:54;15.70;99.90
13982;DHT22;7065;50.880;5.502;2023-10-09T05:42:27;15.70;99.90
13982;DHT22;7065;50.880;5.502;2023-10-09T05:45:15;15.70;99.90
13982;DHT22;7065;50.880;5.502;2023-10-09T05:47:44;15.70;99.90
13982;DHT22;7065;50.880;5.502;2023-10-09T05:50:22;15.70;99.90
13982;DHT22;7065;50.880;5.502;2023-10-09T05:52:52;15.60;99.90
13982;DHT22;7065;50.880;5.502;2023-10-09T05:55:19;15.60;99.90
13982;DHT22;7065;50.880;5.502;2023-10-09T05:57:54;15.60;99.90
13982;DHT22;7065;50.880;5.502;2023-10-09T06:00:39;15.50;99.90
13982;DHT22;7065;50.880;5.502;2023-10-09T06:03:23;15.50;99.90
13982;DHT22;7065;50.880;5.502;2023-10-09T06:05:53;15.50;99.90
13982;DHT22;7065;50.880;5.502;2023-10-09T06:08:23;15.50;99.90
13982;DHT22;7065;50.880;5.502;2023-10-09T06:10:55;15.50;99.90
13982;DHT22;7065;50.880;5.502;2023-10-09T06:13:40;15.50;99.90
13982;DHT22;7065;50.880;5.502;2023-10-09T06:16:23;15.50;99.90
13982;DHT22;7065;50.880;5.502;2023-10-09T06:19:05;15.60;99.90
13982;DHT22;7065;50.880;5.502;2023-10-09T06:21:37;15.60;99.90
13982;DHT22;7065;50.880;5.502;2023-10-09T06:24:19;15.60;99.90
13982;DHT22;7065;50.880;5.502;2023-10-09T06:26:48;15.60;99.90
13982;DHT22;7065;50.880;5.502;2023-10-09T06:29:26;15.70;99.90
13982;DHT22;7065;50.880;5.502;2023-10-09T06:32:08;15.70;99.90
13982;DHT22;7065;50.880;5.502;2023-10-09T06:34:56;15.60;99.90
13982;DHT22;7065;50.880;5.502;2023-10-09T06:37:23;15.60;99.90
13982;DHT22;7065;50.880;5.502;2023-10-09T06:39:53;15.60;99.90
13982;DHT22;7065;50.880;5.502;2023-10-09T06:45:02;15.70;99.90
13982;DHT22;7065;50.880;5.502;2023-10-09T06:47:42;15.70;99.90
13982;DHT22;7065;50.880;5.502;2023-10-09T06:50:19;15.60;99.90
13982;DHT22;7065;50.880;5.502;2023-10-09T06:52:53;15.60;99.90
13982;DHT22;7065;50.880;5.502;2023-10-09T06:55:23;15.60;99.90
13982;DHT22;7065;50.880;5.502;2023-10-09T06:58:00;15.60;99.90
13982;DHT22;7065;50.880;5.502;2023-10-09T07:00:30;15.60;99.90
13982;DHT22;7065;50.880;5.502;2023-10-09T07:03:20;15.60;99.90
13982;DHT22;7065;50.880;5.502;2023-10-09T07:06:08;15.70;99.90
13982;DHT22;7065;50.880;5.502;2023-10-09T07:08:56;15.70;99.90
13982;DHT22;7065;50.880;5.502;2023-10-09T07:11:47;15.70;99.90
13982;DHT22;7065;50.880;5.502;2023-10-09T07:14:21;15.70;99.90
13982;DHT22;7065;50.880;5.502;2023-10-09T07:17:02;15.80;99.90
13982;DHT22;7065;50.880;5.502;2023-10-09T07:19:32;15.80;99.90
13982;DHT22;7065;50.880;5.502;2023-10-09T07:22:07;15.80;99.90
13982;DHT22;7065;50.880;5.502;2023-10-09T07:24:49;15.90;99.90
13982;DHT22;7065;50.880;5.502;2023-10-09T07:27:21;15.90;99.90
13982;DHT22;7065;50.880;5.502;2023-10-09T07:30:09;16.00;99.90
13982;DHT22;7065;50.880;5.502;2023-10-09T07:33:03;16.00;99.90
13982;DHT22;7065;50.880;5.502;2023-10-09T07:35:35;16.00;99.90
13982;DHT22;7065;50.880;5.502;2023-10-09T07:38:16;16.00;99.90
13982;DHT22;7065;50.880;5.502;2023-10-09T07:40:48;16.00;99.90
13982;DHT22;7065;50.880;5.502;2023-10-09T07:43:33;16.00;99.90
13982;DHT22;7065;50.880;5.502;2023-10-09T07:46:06;16.00;99.90
13982;DHT22;7065;50.880;5.502;2023-10-09T07:48:50;16.10;99.90
13982;DHT22;7065;50.880;5.502;2023-10-09T07:51:19;16.10;99.90
13982;DHT22;7065;50.880;5.502;2023-10-09T07:53:58;16.20;99.90
13982;DHT22;7065;50.880;5.502;2023-10-09T07:56:37;16.20;99.90
13982;DHT22;7065;50.880;5.502;2023-10-09T07:59:18;16.30;99.90
13982;DHT22;7065;50.880;5.502;2023-10-09T08:01:46;16.30;99.90
13982;DHT22;7065;50.880;5.502;2023-10-09T08:04:21;16.40;99.90
13982;DHT22;7065;50.880;5.502;2023-10-09T08:07:10;16.50;99.90
13982;DHT22;7065;50.880;5.502;2023-10-09T08:09:47;16.60;99.90
13982;DHT22;7065;50.880;5.502;2023-10-09T08:12:39;16.60;99.90
13982;DHT22;7065;50.880;5.502;2023-10-09T08:15:23;16.70;99.90
13982;DHT22;7065;50.880;5.502;2023-10-09T08:18:13;16.80;99.90
13982;DHT22;7065;50.880;5.502;2023-10-09T08:20:53;16.80;99.90
13982;DHT22;7065;50.880;5.502;2023-10-09T08:23:23;16.80;99.90
13982;DHT22;7065;50.880;5.502;2023-10-09T08:26:02;16.90;99.90
13982;DHT22;7065;50.880;5.502;2023-10-09T08:28:44;16.90;99.90
13982;DHT22;7065;50.880;5.502;2023-10-09T08:31:17;16.90;99.90
13982;DHT22;7065;50.880;5.502;2023-10-09T08:34:14;17.00;99.90
13982;DHT22;7065;50.880;5.502;2023-10-09T08:36:52;17.00;99.90
13982;DHT22;7065;50.880;5.502;2023-10-09T08:39:20;17.00;99.90
13982;DHT22;7065;50.880;5.502;2023-10-09T08:41:52;17.20;99.90
13982;DHT22;7065;50.880;5.502;2023-10-09T08:44:24;17.20;99.90
13982;DHT22;7065;50.880;5.502;2023-10-09T08:46:54;17.30;99.90
13982;DHT22;7065;50.880;5.502;2023-10-09T08:49:20;17.30;99.90
13982;DHT22;7065;50.880;5.502;2023-10-09T08:51:49;17.40;99.90
13982;DHT22;7065;50.880;5.502;2023-10-09T08:54:18;17.40;99.90
13982;DHT22;7065;50.880;5.502;2023-10-09T08:56:48;17.40;99.90
13982;DHT22;7065;50.880;5.502;2023-10-09T08:59:17;17.40;99.90
13982;DHT22;7065;50.880;5.502;2023-10-09T09:01:50;17.40;99.90
13982;DHT22;7065;50.880;5.502;2023-10-09T09:07:21;17.40;99.90
13982;DHT22;7065;50.880;5.502;2023-10-09T09:09:59;17.50;99.90
13982;DHT22;7065;50.880;5.502;2023-10-09T09:12:45;17.60;99.90
13982;DHT22;7065;50.880;5.502;2023-10-09T09:15:14;17.60;99.90
13982;DHT22;7065;50.880;5.502;2023-10-09T09:17:47;17.70;99.90
13982;DHT22;7065;50.880;5.502;2023-10-09T09:20:25;17.80;99.90
13982;DHT22;7065;50.880;5.502;2023-10-09T09:23:00;17.90;99.90
13982;DHT22;7065;50.880;5.502;2023-10-09T09:25:46;17.90;99.90
13982;DHT22;7065;50.880;5.502;2023-10-09T09:28:14;18.00;99.90
13982;DHT22;7065;50.880;5.502;2023-10-09T09:30:45;18.00;99.90
13982;DHT22;7065;50.880;5.502;2023-10-09T09:33:25;18.00;99.90
13982;DHT22;7065;50.880;5.502;2023-10-09T09:36:20;18.10;99.90
13982;DHT22;7065;50.880;5.502;2023-10-09T09:38:46;18.30;99.90
13982;DHT22;7065;50.880;5.502;2023-10-09T09:41:17;18.40;99.90
13982;DHT22;7065;50.880;5.502;2023-10-09T09:43:59;18.50;99.90
13982;DHT22;7065;50.880;5.502;2023-10-09T09:46:32;18.60;99.90
13982;DHT22;7065;50.880;5.502;2023-10-09T09:49:04;18.70;99.90
13982;DHT22;7065;50.880;5.502;2023-10-09T09:51:42;18.80;99.90
13982;DHT22;7065;50.880;5.502;2023-10-09T09:54:12;18.90;99.90
13982;DHT22;7065;50.880;5.502;2023-10-09T09:56:45;19.00;99.90
13982;DHT22;7065;50.880;5.502;2023-10-09T09:59:17;19.10;99.90
13982;DHT22;7065;50.880;5.502;2023-10-09T10:01:55;19.20;99.90
13982;DHT22;7065;50.880;5.502;2023-10-09T10:04:32;19.30;99.90
13982;DHT22;7065;50.880;5.502;2023-10-09T10:07:05;19.40;99.90
13982;DHT22;7065;50.880;5.502;2023-10-09T10:09:39;19.50;99.90
13982;DHT22;7065;50.880;5.502;2023-10-09T10:12:07;19.60;99.90
13982;DHT22;7065;50.880;5.502;2023-10-09T10:14:52;19.60;99.90
13982;DHT22;7065;50.880;5.502;2023-10-09T10:17:19;19.60;99.90
13982;DHT22;7065;50.880;5.502;2023-10-09T10:22:27;19.60;99.90
13982;DHT22;7065;50.880;5.502;2023-10-09T10:24:53;19.80;99.90
13982;DHT22;7065;50.880;5.502;2023-10-09T10:27:25;19.90;99.90
13982;DHT22;7065;50.880;5.502;2023-10-09T10:32:59;20.00;99.90
13982;DHT22;7065;50.880;5.502;2023-10-09T10:35:45;20.00;99.90
13982;DHT22;7065;50.880;5.502;2023-10-09T10:38:31;20.00;99.90
13982;DHT22;7065;50.880;5.502;2023-10-09T10:41:17;20.10;99.90
13982;DHT22;7065;50.880;5.502;2023-10-09T10:43:48;20.10;99.90
13982;DHT22;7065;50.880;5.502;2023-10-09T10:46:22;20.10;99.90
13982;DHT22;7065;50.880;5.502;2023-10-09T10:49:00;20.20;99.90
13982;DHT22;7065;50.880;5.502;2023-10-09T10:51:41;20.20;99.90
13982;DHT22;7065;50.880;5.502;2023-10-09T10:54:23;20.30;99.90
13982;DHT22;7065;50.880;5.502;2023-10-09T10:57:19;20.30;99.90
13982;DHT22;7065;50.880;5.502;2023-10-09T10:59:54;20.30;99.90
13982;DHT22;7065;50.880;5.502;2023-10-09T11:02:39;20.30;99.90
13982;DHT22;7065;50.880;5.502;2023-10-09T11:05:07;20.30;99.90
13982;DHT22;7065;50.880;5.502;2023-10-09T11:07:50;20.30;99.90
13982;DHT22;7065;50.880;5.502;2023-10-09T11:10:24;20.30;99.90
13982;DHT22;7065;50.880;5.502;2023-10-09T11:12:54;20.40;99.90
13982;DHT22;7065;50.880;5.502;2023-10-09T11:15:34;20.30;99.90
13982;DHT22;7065;50.880;5.502;2023-10-09T11:18:10;20.40;99.90
13982;DHT22;7065;50.880;5.502;2023-10-09T11:20:52;20.40;99.90
13982;DHT22;7065;50.880;5.502;2023-10-09T11:23:44;20.40;99.90
13982;DHT22;7065;50.880;5.502;2023-10-09T11:26:16;20.40;99.90
13982;DHT22;7065;50.880;5.502;2023-10-09T11:32:02;20.50;99.90
13982;DHT22;7065;50.880;5.502;2023-10-09T11:34:32;20.60;99.90
13982;DHT22;7065;50.880;5.502;2023-10-09T11:39:29;20.60;99.90
13982;DHT22;7065;50.880;5.502;2023-10-09T11:42:09;20.70;99.90
13982;DHT22;7065;50.880;5.502;2023-10-09T11:44:43;20.60;99.90
13982;DHT22;7065;50.880;5.502;2023-10-09T11:47:20;20.70;99.90
13982;DHT22;7065;50.880;5.502;2023-10-09T11:49:54;20.70;99.90
13982;DHT22;7065;50.880;5.502;2023-10-09T11:52:26;20.70;99.90
13982;DHT22;7065;50.880;5.502;2023-10-09T11:55:02;20.70;99.90
13982;DHT22;7065;50.880;5.502;2023-10-09T11:57:28;20.70;99.90
13982;DHT22;7065;50.880;5.502;2023-10-09T11:59:59;20.80;99.90
13982;DHT22;7065;50.880;5.502;2023-10-09T12:02:26;20.80;99.90
13982;DHT22;7065;50.880;5.502;2023-10-09T12:04:51;20.80;99.90
13982;DHT22;7065;50.880;5.502;2023-10-09T12:07:19;20.90;99.90
13982;DHT22;7065;50.880;5.502;2023-10-09T12:09:46;21.00;99.90
13982;DHT22;7065;50.880;5.502;2023-10-09T12:12:13;21.10;99.90
13982;DHT22;7065;50.880;5.502;2023-10-09T12:14:39;21.10;99.90
13982;DHT22;7065;50.880;5.502;2023-10-09T12:17:06;21.10;99.90
13982;DHT22;7065;50.880;5.502;2023-10-09T12:19:36;21.10;99.90
13982;DHT22;7065;50.880;5.502;2023-10-09T12:22:04;21.20;99.90
13982;DHT22;7065;50.880;5.502;2023-10-09T12:24:31;21.20;99.90
13982;DHT22;7065;50.880;5.502;2023-10-09T12:26:59;21.30;99.90
13982;DHT22;7065;50.880;5.502;2023-10-09T12:29:25;21.40;99.90
13982;DHT22;7065;50.880;5.502;2023-10-09T12:31:56;21.30;99.90
13982;DHT22;7065;50.880;5.502;2023-10-09T12:34:25;21.30;99.90
13982;DHT22;7065;50.880;5.502;2023-10-09T12:36:57;21.20;99.90
13982;DHT22;7065;50.880;5.502;2023-10-09T12:39:28;21.20;99.90
13982;DHT22;7065;50.880;5.502;2023-10-09T12:41:59;21.20;99.90
13982;DHT22;7065;50.880;5.502;2023-10-09T12:44:32;21.20;99.90
13982;DHT22;7065;50.880;5.502;2023-10-09T12:46:59;21.10;99.90
13982;DHT22;7065;50.880;5.502;2023-10-09T12:49:30;21.10;99.90
13982;DHT22;7065;50.880;5.502;2023-10-09T12:51:55;21.00;99.90
13982;DHT22;7065;50.880;5.502;2023-10-09T12:54:27;21.00;99.90
13982;DHT22;7065;50.880;5.502;2023-10-09T12:56:54;21.00;99.90
13982;DHT22;7065;50.880;5.502;2023-10-09T12:59:20;20.90;99.90
13982;DHT22;7065;50.880;5.502;2023-10-09T13:01:47;21.00;99.90
13982;DHT22;7065;50.880;5.502;2023-10-09T13:04:23;20.90;99.90
13982;DHT22;7065;50.880;5.502;2023-10-09T13:06:49;20.90;99.90
13982;DHT22;7065;50.880;5.502;2023-10-09T13:09:19;20.90;99.90
13982;DHT22;7065;50.880;5.502;2023-10-09T13:12:05;20.90;99.90
13982;DHT22;7065;50.880;5.502;2023-10-09T13:14:33;20.90;99.90
13982;DHT22;7065;50.880;5.502;2023-10-09T13:16:59;20.90;99.90
13982;DHT22;7065;50.880;5.502;2023-10-09T13:19:25;20.90;99.90
13982;DHT22;7065;50.880;5.502;2023-10-09T13:21:51;20.80;99.90
13982;DHT22;7065;50.880;5.502;2023-10-09T13:24:17;20.80;99.90
13982;DHT22;7065;50.880;5.502;2023-10-09T13:26:44;20.90;99.90
13982;DHT22;7065;50.880;5.502;2023-10-09T13:29:16;20.90;99.90
13982;DHT22;7065;50.880;5.502;2023-10-09T13:31:48;20.80;99.90
13982;DHT22;7065;50.880;5.502;2023-10-09T13:34:15;20.80;99.90
13982;DHT22;7065;50.880;5.502;2023-10-09T13:36:44;20.70;99.90
13982;DHT22;7065;50.880;5.502;2023-10-09T13:39:19;20.70;99.90
13982;DHT22;7065;50.880;5.502;2023-10-09T13:41:56;20.70;99.90
13982;DHT22;7065;50.880;5.502;2023-10-09T13:44:28;20.80;99.90
13982;DHT22;7065;50.880;5.502;2023-10-09T13:47:01;20.80;99.90
13982;DHT22;7065;50.880;5.502;2023-10-09T13:49:30;20.80;99.90
13982;DHT22;7065;50.880;5.502;2023-10-09T13:51:57;20.80;99.90
13982;DHT22;7065;50.880;5.502;2023-10-09T13:54:23;20.90;99.90
13982;DHT22;7065;50.880;5.502;2023-10-09T13:57:01;21.00;99.90
13982;DHT22;7065;50.880;5.502;2023-10-09T13:59:30;21.10;99.90
13982;DHT22;7065;50.880;5.502;2023-10-09T14:01:56;21.20;99.90
13982;DHT22;7065;50.880;5.502;2023-10-09T14:04:24;21.30;99.90
13982;DHT22;7065;50.880;5.502;2023-10-09T14:06:50;21.40;99.90
13982;DHT22;7065;50.880;5.502;2023-10-09T14:09:25;21.40;99.90
13982;DHT22;7065;50.880;5.502;2023-10-09T14:12:04;21.30;99.90
13982;DHT22;7065;50.880;5.502;2023-10-09T14:14:41;21.30;99.90
13982;DHT22;7065;50.880;5.502;2023-10-09T14:17:17;21.20;99.90
13982;DHT22;7065;50.880;5.502;2023-10-09T14:19:49;21.10;99.90
13982;DHT22;7065;50.880;5.502;2023-10-09T14:22:17;21.10;99.90
13982;DHT22;7065;50.880;5.502;2023-10-09T14:24:47;21.00;99.90
13982;DHT22;7065;50.880;5.502;2023-10-09T14:27:16;21.00;99.90
13982;DHT22;7065;50.880;5.502;2023-10-09T14:29:48;20.90;99.90
13982;DHT22;7065;50.880;5.502;2023-10-09T14:32:15;20.90;99.90
13982;DHT22;7065;50.880;5.502;2023-10-09T14:34:42;20.90;99.90
13982;DHT22;7065;50.880;5.502;2023-10-09T14:37:18;21.00;99.90
13982;DHT22;7065;50.880;5.502;2023-10-09T14:39:45;21.00;99.90
13982;DHT22;7065;50.880;5.502;2023-10-09T14:42:17;21.00;99.90
13982;DHT22;7065;50.880;5.502;2023-10-09T14:44:46;21.00;99.90
13982;DHT22;7065;50.880;5.502;2023-10-09T14:47:11;20.90;99.90
13982;DHT22;7065;50.880;5.502;2023-10-09T14:49:40;20.90;99.90
13982;DHT22;7065;50.880;5.502;2023-10-09T14:52:13;20.80;99.90
13982;DHT22;7065;50.880;5.502;2023-10-09T14:54:42;20.80;99.90
13982;DHT22;7065;50.880;5.502;2023-10-09T14:57:10;20.70;99.90
13982;DHT22;7065;50.880;5.502;2023-10-09T14:59:37;20.60;99.90
13982;DHT22;7065;50.880;5.502;2023-10-09T15:02:03;20.60;99.90
13982;DHT22;7065;50.880;5.502;2023-10-09T15:04:31;20.50;99.90
13982;DHT22;7065;50.880;5.502;2023-10-09T15:06:57;20.50;99.90
13982;DHT22;7065;50.880;5.502;2023-10-09T15:09:23;20.40;99.90
13982;DHT22;7065;50.880;5.502;2023-10-09T15:11:53;20.40;99.90
13982;DHT22;7065;50.880;5.502;2023-10-09T15:14:20;20.40;99.90
13982;DHT22;7065;50.880;5.502;2023-10-09T15:16:46;20.40;99.90
13982;DHT22;7065;50.880;5.502;2023-10-09T15:19:13;20.40;99.90
13982;DHT22;7065;50.880;5.502;2023-10-09T15:21:40;20.40;99.90
13982;DHT22;7065;50.880;5.502;2023-10-09T15:24:16;20.50;99.90
13982;DHT22;7065;50.880;5.502;2023-10-09T15:26:48;20.60;99.90
13982;DHT22;7065;50.880;5.502;2023-10-09T15:29:27;20.70;99.90
13982;DHT22;7065;50.880;5.502;2023-10-09T15:31:59;20.80;99.90
13982;DHT22;7065;50.880;5.502;2023-10-09T15:34:37;20.80;99.90
13982;DHT22;7065;50.880;5.502;2023-10-09T15:37:04;20.80;99.90
13982;DHT22;7065;50.880;5.502;2023-10-09T15:39:35;20.80;99.90
13982;DHT22;7065;50.880;5.502;2023-10-09T15:42:02;20.90;99.90
13982;DHT22;7065;50.880;5.502;2023-10-09T15:44:38;20.90;99.90
13982;DHT22;7065;50.880;5.502;2023-10-09T15:47:05;20.80;99.90
13982;DHT22;7065;50.880;5.502;2023-10-09T15:49:34;20.70;99.90
13982;DHT22;7065;50.880;5.502;2023-10-09T15:52:00;20.70;99.90
13982;DHT22;7065;50.880;5.502;2023-10-09T15:54:29;20.60;99.90
13982;DHT22;7065;50.880;5.502;2023-10-09T15:56:55;20.70;99.90
13982;DHT22;7065;50.880;5.502;2023-10-09T15:59:22;20.60;99.90
13982;DHT22;7065;50.880;5.502;2023-10-09T16:01:49;20.70;99.90
13982;DHT22;7065;50.880;5.502;2023-10-09T16:04:17;20.70;99.90
13982;DHT22;7065;50.880;5.502;2023-10-09T16:06:43;20.60;99.90
13982;DHT22;7065;50.880;5.502;2023-10-09T16:09:08;20.50;99.90
13982;DHT22;7065;50.880;5.502;2023-10-09T16:11:39;20.40;99.90
13982;DHT22;7065;50.880;5.502;2023-10-09T16:14:05;20.30;99.90
13982;DHT22;7065;50.880;5.502;2023-10-09T16:16:37;20.20;99.90
13982;DHT22;7065;50.880;5.502;2023-10-09T16:19:09;20.10;99.90
13982;DHT22;7065;50.880;5.502;2023-10-09T16:21:38;20.10;99.90
13982;DHT22;7065;50.880;5.502;2023-10-09T16:24:05;20.00;99.90
13982;DHT22;7065;50.880;5.502;2023-10-09T16:26:32;19.90;99.90
13982;DHT22;7065;50.880;5.502;2023-10-09T16:29:09;19.80;99.90
13982;DHT22;7065;50.880;5.502;2023-10-09T16:31:36;19.70;99.90
13982;DHT22;7065;50.880;5.502;2023-10-09T16:34:05;19.60;99.90
13982;DHT22;7065;50.880;5.502;2023-10-09T16:36:36;19.50;99.90
13982;DHT22;7065;50.880;5.502;2023-10-09T16:39:03;19.40;99.90
13982;DHT22;7065;50.880;5.502;2023-10-09T16:41:29;19.20;99.90